Time;durP1;ratioP1;P1;durP2;ratioP2;P2;SDS_P1;SDS_P2;PMS_P1;PMS_P2;Temp;Humidity;BMP_temperature;BMP_pressure;BME280_temperature;BME280_humidity;BME280_pressure;Samples;Min_cycle;Max_cycle;Signal;HPM_P1;HPM_P2
2022/07/16 00:05:49;;;;;;;6.63;2.00;;;;;;;-147.20;100.00;63046.97;31570815;28;20112;-65
2022/07/16 00:20:50;;;;;;;6.30;3.10;;;;;;;-147.20;100.00;63046.97;31569521;28;20036;-61
2022/07/16 00:35:50;;;;;;;4.90;1.95;;;;;;;-147.20;100.00;63046.97;31568079;28;20037;-61
2022/07/16 00:50:51;;;;;;;4.38;1.98;;;;;;;-147.20;100.00;63046.97;31565950;28;20060;-61
2022/07/16 01:05:52;;;;;;;4.50;1.77;;;;;;;-147.20;100.00;63046.97;31563809;28;20486;-61
2022/07/16 01:20:52;;;;;;;5.82;1.70;;;;;;;-147.20;100.00;63046.97;31563383;28;20028;-61
2022/07/16 01:36:01;;;;;;;7.68;2.38;;;;;;;-147.20;100.00;63046.97;31562203;28;20486;-62
2022/07/16 01:51:01;;;;;;;5.65;2.00;;;;;;;-147.20;100.00;63046.97;31560668;28;20049;-61
2022/07/16 02:06:02;;;;;;;9.48;2.28;;;;;;;-147.20;100.00;63046.97;31558883;28;20029;-62
2022/07/16 02:21:03;;;;;;;9.38;2.25;;;;;;;-147.20;100.00;63046.97;31557488;28;20025;-62
2022/07/16 02:36:04;;;;;;;10.32;2.33;;;;;;;-147.20;100.00;63046.97;31555998;28;20039;-62
2022/07/16 02:51:04;;;;;;;4.03;2.20;;;;;;;-147.20;100.00;63046.97;31554563;28;20056;-62
2022/07/16 03:06:04;;;;;;;7.28;2.38;;;;;;;-147.20;100.00;63046.97;31553613;28;20028;-62
2022/07/16 03:21:05;;;;;;;6.75;3.20;;;;;;;-147.20;100.00;63046.97;31560183;28;20419;-62
2022/07/16 03:36:05;;;;;;;5.28;2.50;;;;;;;-147.20;100.00;63046.97;31572899;28;20486;-62
2022/07/16 03:51:06;;;;;;;6.32;2.53;;;;;;;-147.20;100.00;63046.97;31571147;28;20049;-62
2022/07/16 04:06:07;;;;;;;3.53;1.90;;;;;;;-147.20;100.00;63046.97;31570935;28;20100;-62
2022/07/16 04:21:07;;;;;;;4.15;1.73;;;;;;;-147.20;100.00;63046.97;31568604;28;20600;-61
2022/07/16 04:36:08;;;;;;;4.07;1.83;;;;;;;-147.20;100.00;63046.97;31566842;28;20397;-62
2022/07/16 04:51:08;;;;;;;13.50;6.13;;;;;;;-147.20;100.00;63046.97;31564576;28;20056;-62
2022/07/16 05:06:08;;;;;;;5.57;1.80;;;;;;;-147.20;100.00;63046.97;31563515;28;20033;-61
2022/07/16 05:21:09;;;;;;;4.80;1.80;;;;;;;-147.20;100.00;63046.97;31561969;28;20501;-62
2022/07/16 05:36:09;;;;;;;4.35;1.67;;;;;;;-147.20;100.00;63046.97;31561147;28;20025;-62
2022/07/16 05:51:10;;;;;;;3.50;1.48;;;;;;;-147.20;100.00;63046.97;31558261;28;20057;-62
2022/07/16 06:06:10;;;;;;;2.25;1.13;;;;;;;-147.20;100.00;63046.97;31557931;28;20028;-66
2022/07/16 06:21:10;;;;;;;4.80;1.20;;;;;;;-147.20;100.00;63046.97;31555203;28;20033;-64
2022/07/16 06:36:11;;;;;;;10.25;3.83;;;;;;;-147.20;100.00;63046.97;31554749;28;20051;-63
2022/07/16 06:51:12;;;;;;;7.50;1.13;;;;;;;-147.20;100.00;63046.97;31552091;28;20419;-63
2022/07/16 07:06:13;;;;;;;3.80;1.20;;;;;;;-147.20;100.00;63046.97;31552279;28;20037;-63
2022/07/16 07:21:13;;;;;;;1.30;0.60;;;;;;;-147.20;100.00;63046.97;31550683;28;20040;-63
2022/07/16 07:36:14;;;;;;;1.13;0.68;;;;;;;-147.20;100.00;63046.97;31550910;28;20083;-62
2022/07/16 07:51:14;;;;;;;3.03;0.95;;;;;;;-147.20;100.00;63046.97;31547827;28;20098;-62
2022/07/16 08:06:15;;;;;;;2.53;0.65;;;;;;;-147.20;100.00;63046.97;31554714;28;20083;-62
2022/07/16 08:21:15;;;;;;;3.08;0.57;;;;;;;-147.20;100.00;63046.97;31568178;28;20477;-61
2022/07/16 08:36:16;;;;;;;0.80;0.57;;;;;;;-147.20;100.00;63046.97;31565560;28;20029;-62
2022/07/16 08:51:22;;;;;;;2.83;0.90;;;;;;;-147.20;100.00;63046.97;31564499;28;20071;-61
2022/07/16 09:06:24;;;;;;;3.20;0.52;;;;;;;-147.20;100.00;63046.97;31563658;28;20124;-62
2022/07/16 09:21:24;;;;;;;1.88;0.60;;;;;;;-147.20;100.00;63046.97;31561294;28;20044;-62
2022/07/16 09:36:24;;;;;;;2.15;0.70;;;;;;;-147.20;100.00;63046.97;31559581;28;20095;-62
2022/07/16 09:51:26;;;;;;;;;;;;;;;-147.20;100.00;63046.97;31559679;28;20540;-62
2022/07/16 10:06:27;;;;;;;4.38;0.82;;;;;;;-147.20;100.00;63046.97;31558791;28;19928;-62
2022/07/16 10:21:28;;;;;;;1.77;0.70;;;;;;;-147.20;100.00;63046.97;31555886;28;20056;-61
2022/07/16 10:36:59;;;;;;;3.53;0.70;;;;;;;-147.20;100.00;63046.97;31553874;28;20123;-60
2022/07/16 10:52:08;;;;;;;2.37;0.63;;;;;;;-147.20;100.00;63046.97;31552356;28;20041;-62
2022/07/16 11:07:12;;;;;;;1.77;0.60;;;;;;;-147.20;100.00;63046.97;31553387;28;20052;-61
2022/07/16 11:22:12;;;;;;;4.60;1.30;;;;;;;-147.20;100.00;63046.97;31551337;28;20055;-64
2022/07/16 11:37:13;;;;;;;5.53;1.60;;;;;;;-147.20;100.00;63046.97;31551215;28;20080;-69
2022/07/16 11:52:16;;;;;;;3.83;2.00;;;;;;;-147.20;100.00;63046.97;31571279;28;20029;-65
2022/07/16 12:07:25;;;;;;;2.85;1.27;;;;;;;-147.20;100.00;63046.97;31570312;28;20114;-62
2022/07/16 12:22:45;;;;;;;3.58;1.20;;;;;;;-147.20;100.00;63046.97;31567706;28;20025;-67
2022/07/16 12:37:45;;;;;;;1.50;0.93;;;;;;;-147.20;100.00;63046.97;31566522;28;20479;-68
2022/07/16 12:52:46;;;;;;;7.47;1.73;;;;;;;-147.20;100.00;63046.97;31566294;28;20040;-63
2022/07/16 13:07:46;;;;;;;5.07;1.33;;;;;;;-147.20;100.00;63046.97;31564981;28;20033;-62
2022/07/16 13:22:46;;;;;;;3.33;0.98;;;;;;;-147.20;100.00;63046.97;31562199;28;20029;-67
2022/07/16 13:37:47;;;;;;;3.63;1.45;;;;;;;-147.20;100.00;63046.97;31560468;28;20051;-65
2022/07/16 13:52:47;;;;;;;3.42;1.38;;;;;;;-147.20;100.00;63046.97;31560288;28;20413;-65
2022/07/16 14:07:48;;;;;;;2.42;1.40;;;;;;;-147.20;100.00;63046.97;31557402;28;20037;-62
2022/07/16 14:22:49;;;;;;;2.97;0.80;;;;;;;-147.20;100.00;63046.97;31556523;28;20029;-62
2022/07/16 14:37:49;;;;;;;3.45;0.70;;;;;;;-147.20;100.00;63046.97;31555146;28;20092;-62
2022/07/16 14:52:50;;;;;;;1.92;0.75;;;;;;;-147.20;100.00;63046.97;31555300;28;20033;-62
2022/07/16 15:07:51;;;;;;;2.40;1.13;;;;;;;-147.20;100.00;63046.97;31551764;28;20114;-62
2022/07/16 15:22:52;;;;;;;2.45;0.60;;;;;;;-147.20;100.00;63046.97;31550898;28;20032;-62
2022/07/16 15:37:52;;;;;;;1.93;0.80;;;;;;;-147.20;100.00;63046.97;31549860;28;20044;-64
2022/07/16 15:52:52;;;;;;;1.33;0.70;;;;;;;-147.20;100.00;63046.97;31549681;28;20398;-62
2022/07/16 16:07:53;;;;;;;2.38;0.73;;;;;;;-147.20;100.00;63046.97;31548139;28;20036;-63
2022/07/16 16:22:53;;;;;;;1.83;0.65;;;;;;;-147.20;100.00;63046.97;31547434;28;20119;-63
2022/07/16 16:37:54;;;;;;;3.03;1.20;;;;;;;-147.20;100.00;63046.97;31566457;28;20580;-61
2022/07/16 16:52:54;;;;;;;2.83;1.10;;;;;;;-147.20;100.00;63046.97;31564565;28;20029;-63
2022/07/16 17:07:54;;;;;;;3.65;1.15;;;;;;;-147.20;100.00;63046.97;31563900;28;20032;-70
2022/07/16 17:22:55;;;;;;;5.57;1.10;;;;;;;-147.20;100.00;63046.97;31563554;28;20033;-71
2022/07/16 17:37:55;;;;;;;2.65;1.08;;;;;;;-147.20;100.00;63046.97;31559919;28;20095;-61
2022/07/16 17:52:59;;;;;;;3.53;1.33;;;;;;;-147.20;100.00;63046.97;31560119;28;20037;-61
2022/07/16 18:08:00;;;;;;;2.40;1.30;;;;;;;-147.20;100.00;63046.97;31558105;28;20049;-63
2022/07/16 18:23:00;;;;;;;2.20;1.40;;;;;;;-147.20;100.00;63046.97;31557627;28;20025;-63
2022/07/16 18:38:00;;;;;;;4.22;2.05;;;;;;;-147.20;100.00;63046.97;31553543;28;20132;-63
2022/07/16 18:53:01;;;;;;;5.75;1.80;;;;;;;-147.20;100.00;63046.97;31553823;28;20458;-67
2022/07/16 19:08:02;;;;;;;4.18;1.85;;;;;;;-147.20;100.00;63046.97;31552476;28;20052;-62
2022/07/16 19:23:05;;;;;;;4.45;1.85;;;;;;;-147.20;100.00;63046.97;31550184;28;20033;-61
2022/07/16 19:38:06;;;;;;;7.15;2.47;;;;;;;-147.20;100.00;63046.97;31548812;28;20041;-61
2022/07/16 19:53:06;;;;;;;7.00;1.80;;;;;;;-147.20;100.00;63046.97;31548061;28;20566;-61
2022/07/16 20:08:06;;;;;;;4.97;1.73;;;;;;;-147.20;100.00;63046.97;31563604;28;20029;-63
2022/07/16 20:23:07;;;;;;;6.38;1.90;;;;;;;-147.20;100.00;63046.97;31567264;28;20021;-62
2022/07/16 20:38:07;;;;;;;3.65;1.70;;;;;;;-147.20;100.00;63046.97;31566975;28;20540;-62
2022/07/16 20:53:08;;;;;;;6.90;2.20;;;;;;;-147.20;100.00;63046.97;31566663;28;20111;-62
2022/07/16 21:08:08;;;;;;;5.55;2.15;;;;;;;-147.20;100.00;63046.97;31563062;28;20029;-61
2022/07/16 21:23:10;;;;;;;6.32;1.73;;;;;;;-147.20;100.00;63046.97;31563809;28;20056;-62
2022/07/16 21:38:11;;;;;;;5.47;2.15;;;;;;;-147.20;100.00;63046.97;31562533;28;20057;-61
2022/07/16 21:53:11;;;;;;;3.67;1.60;;;;;;;-147.20;100.00;63046.97;31561853;28;20033;-64
2022/07/16 22:08:12;;;;;;;4.03;1.60;;;;;;;-147.20;100.00;63046.97;31560055;28;20163;-61
2022/07/16 22:23:12;;;;;;;4.70;1.30;;;;;;;-147.20;100.00;63046.97;31557862;28;20071;-61
2022/07/16 22:38:13;;;;;;;3.63;2.05;;;;;;;-147.20;100.00;63046.97;31557306;28;20045;-61
2022/07/16 22:53:13;;;;;;;3.60;1.60;;;;;;;-147.20;100.00;63046.97;31556221;28;20838;-63
2022/07/16 23:08:13;;;;;;;2.38;1.30;;;;;;;-147.20;100.00;63046.97;31555117;28;20037;-68
2022/07/16 23:23:14;;;;;;;2.53;1.30;;;;;;;-147.20;100.00;63046.97;31554014;28;20099;-65
2022/07/16 23:38:14;;;;;;;3.65;1.52;;;;;;;-147.20;100.00;63046.97;31561286;28;20049;-68
2022/07/16 23:53:16;;;;;;;1.80;1.13;;;;;;;-147.20;100.00;63046.97;31573710;28;20144;-65
